sensor_id;sensor_type;location;lat;lon;timestamp;pressure;altitude;pressure_sealevel;temperature;humidity
47530;BME280;33272;51.922;7.730;2023-09-12T00:00:11;147373.75;;;19.62;100.00
47530;BME280;33272;51.922;7.730;2023-09-12T00:02:38;147378.84;;;19.64;100.00
47530;BME280;33272;51.922;7.730;2023-09-12T00:05:06;147391.63;;;19.69;100.00
47530;BME280;33272;51.922;7.730;2023-09-12T00:07:34;147401.84;;;19.73;100.00
47530;BME280;33272;51.922;7.730;2023-09-12T00:10:01;147410.81;;;19.77;100.00
47530;BME280;33272;51.922;7.730;2023-09-12T00:12:29;147432.50;;;19.85;100.00
47530;BME280;33272;51.922;7.730;2023-09-12T00:14:56;147442.72;;;19.89;100.00
47530;BME280;33272;51.922;7.730;2023-09-12T00:17:23;147456.75;;;19.95;100.00
47530;BME280;33272;51.922;7.730;2023-09-12T00:19:52;147464.41;;;19.98;100.00
47530;BME280;33272;51.922;7.730;2023-09-12T00:22:19;147467.00;;;19.99;100.00
47530;BME280;33272;51.922;7.730;2023-09-12T00:24:46;147460.59;;;19.97;100.00
47530;BME280;33272;51.922;7.730;2023-09-12T00:27:13;147455.47;;;19.95;100.00
47530;BME280;33272;51.922;7.730;2023-09-12T00:29:42;147454.22;;;19.94;100.00
47530;BME280;33272;51.922;7.730;2023-09-12T00:32:09;147446.53;;;19.91;100.00
47530;BME280;33272;51.922;7.730;2023-09-12T00:34:36;147444.00;;;19.90;100.00
47530;BME280;33272;51.922;7.730;2023-09-12T00:37:03;147436.34;;;19.87;100.00
47530;BME280;33272;51.922;7.730;2023-09-12T00:39:30;147433.75;;;19.86;100.00
47530;BME280;33272;51.922;7.730;2023-09-12T00:41:57;147433.75;;;19.86;100.00
47530;BME280;33272;51.922;7.730;2023-09-12T00:44:24;147433.75;;;19.86;100.00
47530;BME280;33272;51.922;7.730;2023-09-12T00:46:53;147436.34;;;19.87;100.00
47530;BME280;33272;51.922;7.730;2023-09-12T00:49:21;147445.28;;;19.90;100.00
47530;BME280;33272;51.922;7.730;2023-09-12T00:51:49;147455.47;;;19.95;100.00
47530;BME280;33272;51.922;7.730;2023-09-12T00:54:17;147461.88;;;19.97;100.00
47530;BME280;33272;51.922;7.730;2023-09-12T00:56:45;147472.06;;;20.01;100.00
47530;BME280;33272;51.922;7.730;2023-09-12T00:59:13;147473.34;;;20.02;100.00
47530;BME280;33272;51.922;7.730;2023-09-12T01:01:42;147479.72;;;20.04;100.00
47530;BME280;33272;51.922;7.730;2023-09-12T01:04:11;147479.72;;;20.04;100.00
47530;BME280;33272;51.922;7.730;2023-09-12T01:06:38;147479.72;;;20.04;100.00
47530;BME280;33272;51.922;7.730;2023-09-12T01:09:05;147482.31;;;20.05;100.00
47530;BME280;33272;51.922;7.730;2023-09-12T01:11:33;147481.00;;;20.05;100.00
47530;BME280;33272;51.922;7.730;2023-09-12T01:14:00;147486.13;;;20.07;100.00
47530;BME280;33272;51.922;7.730;2023-09-12T01:16:27;147491.25;;;20.09;100.00
47530;BME280;33272;51.922;7.730;2023-09-12T01:18:54;147489.97;;;20.08;100.00
47530;BME280;33272;51.922;7.730;2023-09-12T01:21:41;147489.97;;;20.08;100.00
47530;BME280;33272;51.922;7.730;2023-09-12T01:24:52;147491.25;;;20.09;100.00
47530;BME280;33272;51.922;7.730;2023-09-12T01:27:31;147502.72;;;20.13;100.00
47530;BME280;33272;51.922;7.730;2023-09-12T01:30:02;147491.25;;;20.09;100.00
47530;BME280;33272;51.922;7.730;2023-09-12T01:32:32;147483.59;;;20.06;100.00
47530;BME280;33272;51.922;7.730;2023-09-12T01:34:59;147477.19;;;20.03;100.00
47530;BME280;33272;51.922;7.730;2023-09-12T01:37:29;147474.66;;;20.02;100.00
47530;BME280;33272;51.922;7.730;2023-09-12T01:39:57;147482.31;;;20.05;100.00
47530;BME280;33272;51.922;7.730;2023-09-12T01:42:30;147504.00;;;20.14;100.00
47530;BME280;33272;51.922;7.730;2023-09-12T01:44:57;147514.25;;;20.18;100.00
47530;BME280;33272;51.922;7.730;2023-09-12T01:47:26;147521.91;;;20.21;100.00
47530;BME280;33272;51.922;7.730;2023-09-12T01:49:57;147530.84;;;20.25;100.00
47530;BME280;33272;51.922;7.730;2023-09-12T01:52:26;147528.25;;;20.24;100.00
47530;BME280;33272;51.922;7.730;2023-09-12T01:54:54;147534.66;;;20.26;100.00
47530;BME280;33272;51.922;7.730;2023-09-12T01:57:22;147546.16;;;20.31;100.00
47530;BME280;33272;51.922;7.730;2023-09-12T01:59:51;147549.97;;;20.32;100.00
47530;BME280;33272;51.922;7.730;2023-09-12T02:02:18;147537.25;;;20.27;100.00
47530;BME280;33272;51.922;7.730;2023-09-12T02:04:52;147516.78;;;20.19;100.00
47530;BME280;33272;51.922;7.730;2023-09-12T02:07:23;147504.00;;;20.14;100.00
47530;BME280;33272;51.922;7.730;2023-09-12T02:09:51;147497.66;;;20.11;100.00
47530;BME280;33272;51.922;7.730;2023-09-12T02:12:18;147489.97;;;20.08;100.00
47530;BME280;33272;51.922;7.730;2023-09-12T02:14:45;147483.59;;;20.06;100.00
47530;BME280;33272;51.922;7.730;2023-09-12T02:17:13;147481.00;;;20.05;100.00
47530;BME280;33272;51.922;7.730;2023-09-12T02:19:40;147477.19;;;20.03;100.00
47530;BME280;33272;51.922;7.730;2023-09-12T02:22:07;147470.81;;;20.01;100.00
47530;BME280;33272;51.922;7.730;2023-09-12T02:24:34;147460.59;;;19.97;100.00
47530;BME280;33272;51.922;7.730;2023-09-12T02:27:01;147454.22;;;19.94;100.00
47530;BME280;33272;51.922;7.730;2023-09-12T02:29:28;147450.41;;;19.93;100.00
47530;BME280;33272;51.922;7.730;2023-09-12T02:31:56;147441.41;;;19.89;100.00
47530;BME280;33272;51.922;7.730;2023-09-12T02:34:25;147428.69;;;19.84;100.00
47530;BME280;33272;51.922;7.730;2023-09-12T02:36:52;147426.09;;;19.83;100.00
47530;BME280;33272;51.922;7.730;2023-09-12T02:39:19;147429.94;;;19.84;100.00
47530;BME280;33272;51.922;7.730;2023-09-12T02:41:46;147429.94;;;19.84;100.00
47530;BME280;33272;51.922;7.730;2023-09-12T02:44:13;147428.69;;;19.84;100.00
47530;BME280;33272;51.922;7.730;2023-09-12T02:46:40;147435.06;;;19.86;100.00
47530;BME280;33272;51.922;7.730;2023-09-12T02:49:07;147441.41;;;19.89;100.00
47530;BME280;33272;51.922;7.730;2023-09-12T02:51:38;147440.16;;;19.88;100.00
47530;BME280;33272;51.922;7.730;2023-09-12T02:54:07;147435.06;;;19.86;100.00
47530;BME280;33272;51.922;7.730;2023-09-12T02:56:34;147423.56;;;19.82;100.00
47530;BME280;33272;51.922;7.730;2023-09-12T02:59:01;147403.16;;;19.74;100.00
47530;BME280;33272;51.922;7.730;2023-09-12T03:01:28;147419.75;;;19.80;100.00
47530;BME280;33272;51.922;7.730;2023-09-12T03:03:55;147415.91;;;19.79;100.00
47530;BME280;33272;51.922;7.730;2023-09-12T03:06:22;147413.34;;;19.78;100.00
47530;BME280;33272;51.922;7.730;2023-09-12T03:08:50;147417.16;;;19.79;100.00
47530;BME280;33272;51.922;7.730;2023-09-12T03:11:17;147438.88;;;19.88;100.00
47530;BME280;33272;51.922;7.730;2023-09-12T03:13:44;147445.28;;;19.90;100.00
47530;BME280;33272;51.922;7.730;2023-09-12T03:16:11;147427.41;;;19.83;100.00
47530;BME280;33272;51.922;7.730;2023-09-12T03:18:39;147368.59;;;19.60;100.00
47530;BME280;33272;51.922;7.730;2023-09-12T03:21:06;147354.56;;;19.54;100.00
47530;BME280;33272;51.922;7.730;2023-09-12T03:23:33;147330.31;;;19.44;100.00
47530;BME280;33272;51.922;7.730;2023-09-12T03:26:02;147308.66;;;19.36;100.00
47530;BME280;33272;51.922;7.730;2023-09-12T03:28:30;147292.00;;;19.29;100.00
47530;BME280;33272;51.922;7.730;2023-09-12T03:31:05;147265.22;;;19.18;100.00
47530;BME280;33272;51.922;7.730;2023-09-12T03:33:32;147253.78;;;19.14;100.00
47530;BME280;33272;51.922;7.730;2023-09-12T03:35:59;147299.66;;;19.32;100.00
47530;BME280;33272;51.922;7.730;2023-09-12T03:38:26;147270.34;;;19.20;100.00
47530;BME280;33272;51.922;7.730;2023-09-12T03:40:53;147313.72;;;19.38;100.00
47530;BME280;33272;51.922;7.730;2023-09-12T03:43:22;147304.78;;;19.34;100.00
47530;BME280;33272;51.922;7.730;2023-09-12T03:45:49;147294.59;;;19.30;100.00
47530;BME280;33272;51.922;7.730;2023-09-12T03:48:16;147295.88;;;19.31;100.00
47530;BME280;33272;51.922;7.730;2023-09-12T03:50:42;147276.75;;;19.23;100.00
47530;BME280;33272;51.922;7.730;2023-09-12T03:53:10;147274.16;;;19.22;100.00
47530;BME280;33272;51.922;7.730;2023-09-12T03:55:37;147272.88;;;19.21;100.00
47530;BME280;33272;51.922;7.730;2023-09-12T03:58:04;147271.63;;;19.21;100.00
47530;BME280;33272;51.922;7.730;2023-09-12T04:00:32;147269.09;;;19.20;100.00
47530;BME280;33272;51.922;7.730;2023-09-12T04:02:59;147252.47;;;19.13;100.00
47530;BME280;33272;51.922;7.730;2023-09-12T04:05:27;147243.53;;;19.10;100.00
47530;BME280;33272;51.922;7.730;2023-09-12T04:07:54;147237.13;;;19.07;100.00
47530;BME280;33272;51.922;7.730;2023-09-12T04:10:21;147221.88;;;19.01;100.00
47530;BME280;33272;51.922;7.730;2023-09-12T04:12:48;147216.75;;;18.99;100.00
47530;BME280;33272;51.922;7.730;2023-09-12T04:15:15;147203.97;;;18.94;100.00
47530;BME280;33272;51.922;7.730;2023-09-12T04:17:43;147201.44;;;18.93;100.00
47530;BME280;33272;51.922;7.730;2023-09-12T04:20:11;147193.78;;;18.90;100.00
47530;BME280;33272;51.922;7.730;2023-09-12T04:22:39;147188.66;;;18.88;100.00
47530;BME280;33272;51.922;7.730;2023-09-12T04:25:07;147179.75;;;18.84;100.00
47530;BME280;33272;51.922;7.730;2023-09-12T04:27:34;147177.19;;;18.83;100.00
47530;BME280;33272;51.922;7.730;2023-09-12T04:30:01;147191.25;;;18.89;100.00
47530;BME280;33272;51.922;7.730;2023-09-12T04:32:29;147186.13;;;18.87;100.00
47530;BME280;33272;51.922;7.730;2023-09-12T04:34:57;147184.84;;;18.86;100.00
47530;BME280;33272;51.922;7.730;2023-09-12T04:37:24;147179.75;;;18.84;100.00
47530;BME280;33272;51.922;7.730;2023-09-12T04:39:51;147152.97;;;18.73;100.00
47530;BME280;33272;51.922;7.730;2023-09-12T04:42:18;147150.38;;;18.72;100.00
47530;BME280;33272;51.922;7.730;2023-09-12T04:44:46;147149.06;;;18.72;100.00
47530;BME280;33272;51.922;7.730;2023-09-12T04:47:13;147151.69;;;18.73;100.00
47530;BME280;33272;51.922;7.730;2023-09-12T04:49:40;147142.69;;;18.69;100.00
47530;BME280;33272;51.922;7.730;2023-09-12T04:52:08;147142.69;;;18.69;100.00
47530;BME280;33272;51.922;7.730;2023-09-12T04:54:35;147140.13;;;18.68;100.00
47530;BME280;33272;51.922;7.730;2023-09-12T04:57:03;147164.41;;;18.78;100.00
47530;BME280;33272;51.922;7.730;2023-09-12T04:59:30;147175.94;;;18.83;100.00
47530;BME280;33272;51.922;7.730;2023-09-12T05:01:57;147181.00;;;18.85;100.00
47530;BME280;33272;51.922;7.730;2023-09-12T05:04:24;147183.59;;;18.86;100.00
47530;BME280;33272;51.922;7.730;2023-09-12T05:06:51;147184.84;;;18.86;100.00
47530;BME280;33272;51.922;7.730;2023-09-12T05:09:20;147182.31;;;18.85;100.00
47530;BME280;33272;51.922;7.730;2023-09-12T05:11:47;147179.75;;;18.84;100.00
47530;BME280;33272;51.922;7.730;2023-09-12T05:14:14;147169.53;;;18.80;100.00
47530;BME280;33272;51.922;7.730;2023-09-12T05:16:41;147168.28;;;18.80;100.00
47530;BME280;33272;51.922;7.730;2023-09-12T05:19:08;147163.16;;;18.78;100.00
47530;BME280;33272;51.922;7.730;2023-09-12T05:21:35;147144.00;;;18.70;100.00
47530;BME280;33272;51.922;7.730;2023-09-12T05:24:02;147138.88;;;18.68;100.00
47530;BME280;33272;51.922;7.730;2023-09-12T05:26:30;147136.34;;;18.67;100.00
47530;BME280;33272;51.922;7.730;2023-09-12T05:28:57;147133.75;;;18.66;100.00
47530;BME280;33272;51.922;7.730;2023-09-12T05:31:24;147152.97;;;18.73;100.00
47530;BME280;33272;51.922;7.730;2023-09-12T05:33:51;147145.25;;;18.70;100.00
47530;BME280;33272;51.922;7.730;2023-09-12T05:36:18;147140.13;;;18.68;100.00
47530;BME280;33272;51.922;7.730;2023-09-12T05:38:45;147140.13;;;18.68;100.00
47530;BME280;33272;51.922;7.730;2023-09-12T05:41:12;147144.00;;;18.70;100.00
47530;BME280;33272;51.922;7.730;2023-09-12T05:43:40;147133.75;;;18.66;100.00
47530;BME280;33272;51.922;7.730;2023-09-12T05:46:07;147132.47;;;18.65;100.00
47530;BME280;33272;51.922;7.730;2023-09-12T05:48:34;147131.22;;;18.65;100.00
47530;BME280;33272;51.922;7.730;2023-09-12T05:51:02;147168.28;;;18.80;100.00
47530;BME280;33272;51.922;7.730;2023-09-12T05:53:29;147147.78;;;18.71;100.00
47530;BME280;33272;51.922;7.730;2023-09-12T05:55:56;147147.78;;;18.71;100.00
47530;BME280;33272;51.922;7.730;2023-09-12T05:58:23;147150.38;;;18.72;100.00
47530;BME280;33272;51.922;7.730;2023-09-12T06:00:51;147155.50;;;18.74;100.00
47530;BME280;33272;51.922;7.730;2023-09-12T06:03:18;147155.50;;;18.74;100.00
47530;BME280;33272;51.922;7.730;2023-09-12T06:05:45;147159.34;;;18.76;100.00
47530;BME280;33272;51.922;7.730;2023-09-12T06:08:12;147163.16;;;18.78;100.00
47530;BME280;33272;51.922;7.730;2023-09-12T06:10:39;147184.84;;;18.86;100.00
47530;BME280;33272;51.922;7.730;2023-09-12T06:13:06;147184.84;;;18.86;100.00
47530;BME280;33272;51.922;7.730;2023-09-12T06:15:33;147195.03;;;18.90;100.00
47530;BME280;33272;51.922;7.730;2023-09-12T06:18:01;147210.38;;;18.96;100.00
47530;BME280;33272;51.922;7.730;2023-09-12T06:20:28;147228.22;;;19.04;100.00
47530;BME280;33272;51.922;7.730;2023-09-12T06:22:55;147243.53;;;19.10;100.00
47530;BME280;33272;51.922;7.730;2023-09-12T06:25:22;147252.47;;;19.13;100.00
47530;BME280;33272;51.922;7.730;2023-09-12T06:27:50;147225.69;;;19.03;100.00
47530;BME280;33272;51.922;7.730;2023-09-12T06:30:17;147198.91;;;18.92;100.00
47530;BME280;33272;51.922;7.730;2023-09-12T06:32:44;147197.59;;;18.91;100.00
47530;BME280;33272;51.922;7.730;2023-09-12T06:35:12;147178.47;;;18.84;100.00
47530;BME280;33272;51.922;7.730;2023-09-12T06:37:39;147170.81;;;18.81;100.00
47530;BME280;33272;51.922;7.730;2023-09-12T06:40:08;147181.00;;;18.85;100.00
47530;BME280;33272;51.922;7.730;2023-09-12T06:42:35;147191.25;;;18.89;100.00
47530;BME280;33272;51.922;7.730;2023-09-12T06:45:02;147215.47;;;18.98;100.00
47530;BME280;33272;51.922;7.730;2023-09-12T06:47:29;147233.34;;;19.06;100.00
47530;BME280;33272;51.922;7.730;2023-09-12T06:49:56;147251.19;;;19.13;100.00
47530;BME280;33272;51.922;7.730;2023-09-12T06:52:24;147270.34;;;19.20;100.00
47530;BME280;33272;51.922;7.730;2023-09-12T06:54:52;147280.56;;;19.25;100.00
47530;BME280;33272;51.922;7.730;2023-09-12T06:57:18;147283.09;;;19.26;100.00
47530;BME280;33272;51.922;7.730;2023-09-12T06:59:45;147288.22;;;19.28;100.00
47530;BME280;33272;51.922;7.730;2023-09-12T07:02:13;147283.09;;;19.26;100.00
47530;BME280;33272;51.922;7.730;2023-09-12T07:04:40;147278.00;;;19.24;100.00
47530;BME280;33272;51.922;7.730;2023-09-12T07:07:07;147276.75;;;19.23;100.00
47530;BME280;33272;51.922;7.730;2023-09-12T07:09:35;147284.34;;;19.26;100.00
47530;BME280;33272;51.922;7.730;2023-09-12T07:12:03;147281.81;;;19.25;100.00
47530;BME280;33272;51.922;7.730;2023-09-12T07:14:31;147284.34;;;19.26;100.00
47530;BME280;33272;51.922;7.730;2023-09-12T07:16:58;147286.94;;;19.27;100.00
47530;BME280;33272;51.922;7.730;2023-09-12T07:19:25;147283.09;;;19.26;100.00
47530;BME280;33272;51.922;7.730;2023-09-12T07:21:52;147289.47;;;19.28;100.00
47530;BME280;33272;51.922;7.730;2023-09-12T07:24:19;147304.78;;;19.34;100.00
47530;BME280;33272;51.922;7.730;2023-09-12T07:26:47;147297.13;;;19.31;100.00
47530;BME280;33272;51.922;7.730;2023-09-12T07:29:14;147294.59;;;19.30;100.00
47530;BME280;33272;51.922;7.730;2023-09-12T07:31:41;147292.00;;;19.29;100.00
47530;BME280;33272;51.922;7.730;2023-09-12T07:34:08;147270.34;;;19.20;100.00
47530;BME280;33272;51.922;7.730;2023-09-12T07:36:36;147257.56;;;19.15;100.00
47530;BME280;33272;51.922;7.730;2023-09-12T07:39:03;147242.25;;;19.09;100.00
47530;BME280;33272;51.922;7.730;2023-09-12T07:41:30;147271.63;;;19.21;100.00
47530;BME280;33272;51.922;7.730;2023-09-12T07:43:59;147280.56;;;19.25;100.00
47530;BME280;33272;51.922;7.730;2023-09-12T07:46:26;147307.34;;;19.35;100.00
47530;BME280;33272;51.922;7.730;2023-09-12T07:48:53;147315.00;;;19.38;100.00
47530;BME280;33272;51.922;7.730;2023-09-12T07:51:20;147331.56;;;19.45;100.00
47530;BME280;33272;51.922;7.730;2023-09-12T07:53:48;147345.63;;;19.51;100.00
47530;BME280;33272;51.922;7.730;2023-09-12T07:56:15;147354.56;;;19.54;100.00
47530;BME280;33272;51.922;7.730;2023-09-12T07:58:42;147364.81;;;19.58;100.00
47530;BME280;33272;51.922;7.730;2023-09-12T08:01:11;147371.19;;;19.61;100.00
47530;BME280;33272;51.922;7.730;2023-09-12T08:03:39;147376.28;;;19.63;100.00
47530;BME280;33272;51.922;7.730;2023-09-12T08:06:06;147376.28;;;19.63;100.00
47530;BME280;33272;51.922;7.730;2023-09-12T08:08:33;147376.28;;;19.63;100.00
47530;BME280;33272;51.922;7.730;2023-09-12T08:11:00;147373.75;;;19.62;100.00
47530;BME280;33272;51.922;7.730;2023-09-12T08:13:29;147367.34;;;19.59;100.00
47530;BME280;33272;51.922;7.730;2023-09-12T08:15:56;147362.22;;;19.57;100.00
47530;BME280;33272;51.922;7.730;2023-09-12T08:18:28;147354.56;;;19.54;100.00
47530;BME280;33272;51.922;7.730;2023-09-12T08:20:56;147355.88;;;19.55;100.00
47530;BME280;33272;51.922;7.730;2023-09-12T08:23:23;147349.47;;;19.52;100.00
47530;BME280;33272;51.922;7.730;2023-09-12T08:25:50;147317.56;;;19.39;100.00
47530;BME280;33272;51.922;7.730;2023-09-12T08:28:17;147323.97;;;19.42;100.00
47530;BME280;33272;51.922;7.730;2023-09-12T08:30:44;147323.97;;;19.42;100.00
47530;BME280;33272;51.922;7.730;2023-09-12T08:33:12;147353.28;;;19.54;100.00
47530;BME280;33272;51.922;7.730;2023-09-12T08:35:40;147364.81;;;19.58;100.00
47530;BME280;33272;51.922;7.730;2023-09-12T08:38:07;147371.19;;;19.61;100.00
47530;BME280;33272;51.922;7.730;2023-09-12T08:40:35;147373.75;;;19.62;100.00
47530;BME280;33272;51.922;7.730;2023-09-12T08:43:02;147380.19;;;19.64;100.00
47530;BME280;33272;51.922;7.730;2023-09-12T08:45:30;147360.94;;;19.57;100.00
47530;BME280;33272;51.922;7.730;2023-09-12T08:48:00;147390.38;;;19.68;100.00
47530;BME280;33272;51.922;7.730;2023-09-12T08:50:28;147385.25;;;19.66;100.00
47530;BME280;33272;51.922;7.730;2023-09-12T08:53:00;147382.72;;;19.65;100.00
47530;BME280;33272;51.922;7.730;2023-09-12T08:55:27;147380.19;;;19.64;100.00
47530;BME280;33272;51.922;7.730;2023-09-12T08:57:55;147375.00;;;19.62;100.00
47530;BME280;33272;51.922;7.730;2023-09-12T09:00:24;147383.97;;;19.66;100.00
47530;BME280;33272;51.922;7.730;2023-09-12T09:02:53;147392.91;;;19.70;100.00
47530;BME280;33272;51.922;7.730;2023-09-12T09:05:21;147392.91;;;19.70;100.00
47530;BME280;33272;51.922;7.730;2023-09-12T09:07:49;147399.31;;;19.72;100.00
47530;BME280;33272;51.922;7.730;2023-09-12T09:10:18;147404.44;;;19.74;100.00
47530;BME280;33272;51.922;7.730;2023-09-12T09:12:46;147431.22;;;19.85;100.00
47530;BME280;33272;51.922;7.730;2023-09-12T09:15:27;147458.06;;;19.96;100.00
47530;BME280;33272;51.922;7.730;2023-09-12T09:17:56;147478.47;;;20.04;100.00
47530;BME280;33272;51.922;7.730;2023-09-12T09:20:28;147504.00;;;20.14;100.00
47530;BME280;33272;51.922;7.730;2023-09-12T09:22:58;147530.84;;;20.25;100.00
47530;BME280;33272;51.922;7.730;2023-09-12T09:25:26;147557.66;;;20.35;100.00
47530;BME280;33272;51.922;7.730;2023-09-12T09:27:54;147592.16;;;20.49;100.00
47530;BME280;33272;51.922;7.730;2023-09-12T09:30:40;147625.41;;;20.63;100.00
47530;BME280;33272;51.922;7.730;2023-09-12T09:33:08;147645.81;;;20.71;100.00
47530;BME280;33272;51.922;7.730;2023-09-12T09:35:36;147662.44;;;20.77;100.00
47530;BME280;33272;51.922;7.730;2023-09-12T09:38:06;147662.44;;;20.77;100.00
47530;BME280;33272;51.922;7.730;2023-09-12T09:40:35;147663.75;;;20.78;100.00
47530;BME280;33272;51.922;7.730;2023-09-12T09:43:03;147680.34;;;20.85;100.00
47530;BME280;33272;51.922;7.730;2023-09-12T09:45:31;147696.97;;;20.91;100.00
47530;BME280;33272;51.922;7.730;2023-09-12T09:48:03;147727.63;;;21.03;100.00
47530;BME280;33272;51.922;7.730;2023-09-12T09:50:31;147753.19;;;21.14;100.00
47530;BME280;33272;51.922;7.730;2023-09-12T09:53:01;147772.34;;;21.21;100.00
47530;BME280;33272;51.922;7.730;2023-09-12T09:55:30;147786.41;;;21.27;100.00
47530;BME280;33272;51.922;7.730;2023-09-12T09:57:59;147808.19;;;21.36;100.00
47530;BME280;33272;51.922;7.730;2023-09-12T10:00:29;147838.88;;;21.48;100.00
47530;BME280;33272;51.922;7.730;2023-09-12T10:02:59;147865.69;;;21.59;100.00
47530;BME280;33272;51.922;7.730;2023-09-12T10:05:28;147898.94;;;21.72;100.00
47530;BME280;33272;51.922;7.730;2023-09-12T10:07:57;147929.63;;;21.84;100.00
47530;BME280;33272;51.922;7.730;2023-09-12T10:10:25;147960.31;;;21.96;100.00
47530;BME280;33272;51.922;7.730;2023-09-12T10:12:57;148011.53;;;22.17;100.00
47530;BME280;33272;51.922;7.730;2023-09-12T10:15:29;148047.31;;;22.31;100.00
47530;BME280;33272;51.922;7.730;2023-09-12T10:17:59;148101.06;;;22.53;100.00
47530;BME280;33272;51.922;7.730;2023-09-12T10:20:35;148158.63;;;22.76;100.00
47530;BME280;33272;51.922;7.730;2023-09-12T10:23:08;148220.09;;;23.00;100.00
47530;BME280;33272;51.922;7.730;2023-09-12T10:25:38;148253.38;;;23.13;100.00
47530;BME280;33272;51.922;7.730;2023-09-12T10:28:07;148287.97;;;23.27;100.00
47530;BME280;33272;51.922;7.730;2023-09-12T10:30:36;148346.81;;;23.51;100.00
47530;BME280;33272;51.922;7.730;2023-09-12T10:33:04;148398.09;;;23.71;100.00
47530;BME280;33272;51.922;7.730;2023-09-12T10:35:33;148431.38;;;23.85;100.00
47530;BME280;33272;51.922;7.730;2023-09-12T10:38:02;148462.13;;;23.97;100.00
47530;BME280;33272;51.922;7.730;2023-09-12T10:40:31;148469.81;;;24.00;100.00
47530;BME280;33272;51.922;7.730;2023-09-12T10:43:03;148449.31;;;23.92;100.00
47530;BME280;33272;51.922;7.730;2023-09-12T10:45:31;148437.81;;;23.87;100.00
47530;BME280;33272;51.922;7.730;2023-09-12T10:48:00;148419.84;;;23.80;100.00
47530;BME280;33272;51.922;7.730;2023-09-12T10:50:28;148416.00;;;23.78;100.00
47530;BME280;33272;51.922;7.730;2023-09-12T10:52:55;148400.66;;;23.72;100.00
47530;BME280;33272;51.922;7.730;2023-09-12T10:55:23;148387.78;;;23.67;100.00
47530;BME280;33272;51.922;7.730;2023-09-12T10:58:03;148385.22;;;23.66;100.00
47530;BME280;33272;51.922;7.730;2023-09-12T11:00:31;148403.19;;;23.73;100.00
47530;BME280;33272;51.922;7.730;2023-09-12T11:03:36;148433.94;;;23.86;100.00
47530;BME280;33272;51.922;7.730;2023-09-12T11:06:04;148453.16;;;23.93;100.00
47530;BME280;33272;51.922;7.730;2023-09-12T11:08:35;148465.94;;;23.98;100.00
47530;BME280;33272;51.922;7.730;2023-09-12T11:11:19;148460.84;;;23.96;100.00
47530;BME280;33272;51.922;7.730;2023-09-12T11:13:47;148465.94;;;23.98;100.00
47530;BME280;33272;51.922;7.730;2023-09-12T11:16:15;148485.19;;;24.06;100.00
47530;BME280;33272;51.922;7.730;2023-09-12T11:19:15;148471.09;;;24.00;100.00
47530;BME280;33272;51.922;7.730;2023-09-12T11:21:44;148529.97;;;24.24;100.00
47530;BME280;33272;51.922;7.730;2023-09-12T11:24:11;148541.53;;;24.28;100.00
47530;BME280;33272;51.922;7.730;2023-09-12T11:26:58;148608.16;;;24.55;100.00
47530;BME280;33272;51.922;7.730;2023-09-12T11:29:30;148638.91;;;24.67;100.00
47530;BME280;33272;51.922;7.730;2023-09-12T11:32:02;148645.34;;;24.70;100.00
47530;BME280;33272;51.922;7.730;2023-09-12T11:34:37;148644.06;;;24.69;100.00
47530;BME280;33272;51.922;7.730;2023-09-12T11:37:05;148631.22;;;24.64;100.00
47530;BME280;33272;51.922;7.730;2023-09-12T11:39:34;148604.34;;;24.54;100.00
47530;BME280;33272;51.922;7.730;2023-09-12T11:42:03;148612.03;;;24.57;100.00
47530;BME280;33272;51.922;7.730;2023-09-12T11:44:34;148610.75;;;24.56;100.00
47530;BME280;33272;51.922;7.730;2023-09-12T11:47:01;148610.75;;;24.56;100.00
47530;BME280;33272;51.922;7.730;2023-09-12T11:49:37;148627.41;;;24.63;100.00
47530;BME280;33272;51.922;7.730;2023-09-12T11:52:08;148647.88;;;24.71;100.00
47530;BME280;33272;51.922;7.730;2023-09-12T11:54:36;148664.53;;;24.78;100.00
47530;BME280;33272;51.922;7.730;2023-09-12T11:57:03;148673.53;;;24.81;100.00
47530;BME280;33272;51.922;7.730;2023-09-12T11:59:31;148718.38;;;24.99;100.00
47530;BME280;33272;51.922;7.730;2023-09-12T12:01:58;148759.41;;;25.15;100.00
47530;BME280;33272;51.922;7.730;2023-09-12T12:04:25;148758.13;;;25.15;100.00
47530;BME280;33272;51.922;7.730;2023-09-12T12:06:54;148776.13;;;25.22;100.00
47530;BME280;33272;51.922;7.730;2023-09-12T12:09:21;148791.47;;;25.28;100.00
47530;BME280;33272;51.922;7.730;2023-09-12T12:11:48;148782.50;;;25.25;100.00
47530;BME280;33272;51.922;7.730;2023-09-12T12:14:17;148782.50;;;25.25;100.00
47530;BME280;33272;51.922;7.730;2023-09-12T12:16:46;148777.41;;;25.23;100.00
47530;BME280;33272;51.922;7.730;2023-09-12T12:19:14;148772.25;;;25.20;100.00
47530;BME280;33272;51.922;7.730;2023-09-12T12:21:41;148741.44;;;25.08;100.00
47530;BME280;33272;51.922;7.730;2023-09-12T12:24:13;148710.69;;;24.96;100.00
47530;BME280;33272;51.922;7.730;2023-09-12T12:26:41;148668.41;;;24.79;100.00
47530;BME280;33272;51.922;7.730;2023-09-12T12:29:09;148653.03;;;24.73;100.00
47530;BME280;33272;51.922;7.730;2023-09-12T12:31:37;148663.25;;;24.77;100.00
47530;BME280;33272;51.922;7.730;2023-09-12T12:34:05;148678.63;;;24.83;100.00
47530;BME280;33272;51.922;7.730;2023-09-12T12:36:32;148695.28;;;24.90;100.00
47530;BME280;33272;51.922;7.730;2023-09-12T12:38:59;148704.25;;;24.93;100.00
47530;BME280;33272;51.922;7.730;2023-09-12T12:41:29;148711.94;;;24.96;100.00
47530;BME280;33272;51.922;7.730;2023-09-12T12:43:57;148700.44;;;24.92;100.00
47530;BME280;33272;51.922;7.730;2023-09-12T12:46:26;148676.09;;;24.82;100.00